sensor_id;sensor_type;location;lat;lon;timestamp;P1;durP1;ratioP1;P2;durP2;ratioP2
33188;SDS011;52601;53.070;10.600;2022-10-15T00:01:17;4.30;;;1.92;;
33188;SDS011;52601;53.070;10.600;2022-10-15T00:04:03;2.92;;;1.90;;
33188;SDS011;52601;53.070;10.600;2022-10-15T00:06:48;3.83;;;1.92;;
33188;SDS011;52601;53.070;10.600;2022-10-15T00:09:34;4.43;;;1.83;;
33188;SDS011;52601;53.070;10.600;2022-10-15T00:12:20;3.97;;;1.98;;
33188;SDS011;52601;53.070;10.600;2022-10-15T00:15:08;3.58;;;2.05;;
33188;SDS011;52601;53.070;10.600;2022-10-15T00:17:54;5.28;;;2.38;;
33188;SDS011;52601;53.070;10.600;2022-10-15T00:20:40;1.98;;;1.75;;
33188;SDS011;52601;53.070;10.600;2022-10-15T00:23:26;3.17;;;1.80;;
33188;SDS011;52601;53.070;10.600;2022-10-15T00:26:13;2.65;;;1.85;;
33188;SDS011;52601;53.070;10.600;2022-10-15T00:29:01;3.30;;;2.17;;
33188;SDS011;52601;53.070;10.600;2022-10-15T00:31:47;4.15;;;2.45;;
33188;SDS011;52601;53.070;10.600;2022-10-15T00:34:33;4.07;;;2.20;;
33188;SDS011;52601;53.070;10.600;2022-10-15T00:37:18;3.88;;;1.80;;
33188;SDS011;52601;53.070;10.600;2022-10-15T00:40:05;3.83;;;2.10;;
33188;SDS011;52601;53.070;10.600;2022-10-15T00:42:51;3.70;;;2.08;;
33188;SDS011;52601;53.070;10.600;2022-10-15T00:45:36;3.22;;;1.80;;
33188;SDS011;52601;53.070;10.600;2022-10-15T00:48:22;4.55;;;2.17;;
33188;SDS011;52601;53.070;10.600;2022-10-15T00:51:07;3.85;;;2.03;;
33188;SDS011;52601;53.070;10.600;2022-10-15T00:53:53;2.70;;;1.90;;
33188;SDS011;52601;53.070;10.600;2022-10-15T00:56:40;3.20;;;2.28;;
33188;SDS011;52601;53.070;10.600;2022-10-15T00:59:28;4.30;;;2.05;;
33188;SDS011;52601;53.070;10.600;2022-10-15T01:02:16;3.27;;;2.13;;
33188;SDS011;52601;53.070;10.600;2022-10-15T01:05:03;2.80;;;2.08;;
33188;SDS011;52601;53.070;10.600;2022-10-15T01:07:49;3.97;;;2.08;;
33188;SDS011;52601;53.070;10.600;2022-10-15T01:10:37;3.85;;;2.40;;
33188;SDS011;52601;53.070;10.600;2022-10-15T01:17:03;4.22;;;2.22;;
33188;SDS011;52601;53.070;10.600;2022-10-15T01:36:12;4.55;;;2.33;;
33188;SDS011;52601;53.070;10.600;2022-10-15T01:39:20;4.73;;;2.50;;
33188;SDS011;52601;53.070;10.600;2022-10-15T01:42:14;3.67;;;2.58;;
33188;SDS011;52601;53.070;10.600;2022-10-15T01:45:18;6.47;;;2.60;;
33188;SDS011;52601;53.070;10.600;2022-10-15T01:48:10;4.18;;;2.67;;
33188;SDS011;52601;53.070;10.600;2022-10-15T01:50:59;3.17;;;2.60;;
33188;SDS011;52601;53.070;10.600;2022-10-15T01:53:46;4.93;;;2.75;;
33188;SDS011;52601;53.070;10.600;2022-10-15T01:56:33;6.55;;;2.72;;
33188;SDS011;52601;53.070;10.600;2022-10-15T01:59:22;4.55;;;2.92;;
33188;SDS011;52601;53.070;10.600;2022-10-15T02:02:11;5.13;;;3.20;;
33188;SDS011;52601;53.070;10.600;2022-10-15T02:04:58;5.75;;;2.70;;
33188;SDS011;52601;53.070;10.600;2022-10-15T02:07:48;5.28;;;3.03;;
33188;SDS011;52601;53.070;10.600;2022-10-15T02:10:48;6.60;;;3.80;;
33188;SDS011;52601;53.070;10.600;2022-10-15T02:13:45;5.93;;;3.70;;
33188;SDS011;52601;53.070;10.600;2022-10-15T02:17:26;5.32;;;3.00;;
33188;SDS011;52601;53.070;10.600;2022-10-15T02:19:51;8.57;;;3.70;;
33188;SDS011;52601;53.070;10.600;2022-10-15T02:22:45;4.45;;;3.00;;
33188;SDS011;52601;53.070;10.600;2022-10-15T02:25:34;7.33;;;3.30;;
33188;SDS011;52601;53.070;10.600;2022-10-15T02:28:24;5.68;;;3.40;;
33188;SDS011;52601;53.070;10.600;2022-10-15T02:31:13;6.07;;;3.60;;
33188;SDS011;52601;53.070;10.600;2022-10-15T02:34:04;8.90;;;3.58;;
33188;SDS011;52601;53.070;10.600;2022-10-15T02:36:52;7.03;;;3.97;;
33188;SDS011;52601;53.070;10.600;2022-10-15T02:39:39;5.80;;;3.30;;
33188;SDS011;52601;53.070;10.600;2022-10-15T02:42:24;6.85;;;3.70;;
33188;SDS011;52601;53.070;10.600;2022-10-15T02:45:10;5.53;;;3.58;;
33188;SDS011;52601;53.070;10.600;2022-10-15T02:47:56;4.70;;;2.80;;
33188;SDS011;52601;53.070;10.600;2022-10-15T02:50:41;5.20;;;3.35;;
33188;SDS011;52601;53.070;10.600;2022-10-15T02:53:27;6.60;;;4.05;;
33188;SDS011;52601;53.070;10.600;2022-10-15T02:56:12;9.30;;;3.83;;
33188;SDS011;52601;53.070;10.600;2022-10-15T02:58:58;7.13;;;3.63;;
33188;SDS011;52601;53.070;10.600;2022-10-15T03:01:44;5.07;;;3.60;;
33188;SDS011;52601;53.070;10.600;2022-10-15T03:04:29;5.78;;;3.67;;
33188;SDS011;52601;53.070;10.600;2022-10-15T03:07:15;5.20;;;3.47;;
33188;SDS011;52601;53.070;10.600;2022-10-15T03:10:00;4.78;;;3.00;;
33188;SDS011;52601;53.070;10.600;2022-10-15T03:12:46;5.85;;;3.47;;
33188;SDS011;52601;53.070;10.600;2022-10-15T03:15:31;5.93;;;3.33;;
33188;SDS011;52601;53.070;10.600;2022-10-15T03:18:16;7.75;;;4.00;;
33188;SDS011;52601;53.070;10.600;2022-10-15T03:21:02;5.93;;;3.25;;
33188;SDS011;52601;53.070;10.600;2022-10-15T03:23:48;4.35;;;2.67;;
33188;SDS011;52601;53.070;10.600;2022-10-15T03:26:34;13.02;;;3.47;;
33188;SDS011;52601;53.070;10.600;2022-10-15T03:29:20;15.27;;;3.08;;
33188;SDS011;52601;53.070;10.600;2022-10-15T03:32:05;5.38;;;3.35;;
33188;SDS011;52601;53.070;10.600;2022-10-15T03:34:51;3.85;;;2.75;;
33188;SDS011;52601;53.070;10.600;2022-10-15T03:37:36;6.28;;;3.60;;
33188;SDS011;52601;53.070;10.600;2022-10-15T03:40:21;11.93;;;3.58;;
33188;SDS011;52601;53.070;10.600;2022-10-15T03:43:07;3.60;;;2.25;;
33188;SDS011;52601;53.070;10.600;2022-10-15T03:45:52;4.97;;;2.90;;
33188;SDS011;52601;53.070;10.600;2022-10-15T03:48:38;7.20;;;4.10;;
33188;SDS011;52601;53.070;10.600;2022-10-15T03:51:23;4.68;;;3.08;;
33188;SDS011;52601;53.070;10.600;2022-10-15T03:54:13;6.35;;;3.67;;
33188;SDS011;52601;53.070;10.600;2022-10-15T03:56:58;6.13;;;3.42;;
33188;SDS011;52601;53.070;10.600;2022-10-15T03:59:44;5.95;;;3.47;;
33188;SDS011;52601;53.070;10.600;2022-10-15T04:02:30;6.78;;;4.00;;
33188;SDS011;52601;53.070;10.600;2022-10-15T04:05:15;6.25;;;3.55;;
33188;SDS011;52601;53.070;10.600;2022-10-15T04:08:01;8.00;;;3.72;;
33188;SDS011;52601;53.070;10.600;2022-10-15T04:10:49;8.43;;;4.13;;
33188;SDS011;52601;53.070;10.600;2022-10-15T04:13:35;7.50;;;4.20;;
33188;SDS011;52601;53.070;10.600;2022-10-15T04:16:20;6.22;;;3.80;;
33188;SDS011;52601;53.070;10.600;2022-10-15T04:19:06;12.68;;;4.65;;
33188;SDS011;52601;53.070;10.600;2022-10-15T04:21:55;5.75;;;3.28;;
33188;SDS011;52601;53.070;10.600;2022-10-15T04:24:41;28.92;;;4.95;;
33188;SDS011;52601;53.070;10.600;2022-10-15T04:27:26;11.88;;;3.67;;
33188;SDS011;52601;53.070;10.600;2022-10-15T04:30:12;8.73;;;5.03;;
33188;SDS011;52601;53.070;10.600;2022-10-15T04:32:58;8.68;;;3.65;;
33188;SDS011;52601;53.070;10.600;2022-10-15T04:35:44;8.35;;;3.75;;
33188;SDS011;52601;53.070;10.600;2022-10-15T04:38:29;7.05;;;4.10;;
33188;SDS011;52601;53.070;10.600;2022-10-15T04:41:15;9.93;;;5.05;;
33188;SDS011;52601;53.070;10.600;2022-10-15T04:44:01;7.57;;;4.22;;
33188;SDS011;52601;53.070;10.600;2022-10-15T04:46:46;8.23;;;4.38;;
33188;SDS011;52601;53.070;10.600;2022-10-15T04:49:32;7.45;;;4.93;;
33188;SDS011;52601;53.070;10.600;2022-10-15T04:52:18;8.53;;;4.83;;
33188;SDS011;52601;53.070;10.600;2022-10-15T04:55:04;20.65;;;4.72;;
33188;SDS011;52601;53.070;10.600;2022-10-15T04:57:50;19.45;;;4.10;;
33188;SDS011;52601;53.070;10.600;2022-10-15T05:00:36;11.25;;;5.55;;
33188;SDS011;52601;53.070;10.600;2022-10-15T05:03:22;10.30;;;4.40;;
33188;SDS011;52601;53.070;10.600;2022-10-15T05:06:12;9.85;;;4.55;;
33188;SDS011;52601;53.070;10.600;2022-10-15T05:09:02;7.05;;;3.80;;
33188;SDS011;52601;53.070;10.600;2022-10-15T05:11:48;7.82;;;4.55;;
33188;SDS011;52601;53.070;10.600;2022-10-15T05:14:34;10.15;;;5.07;;
33188;SDS011;52601;53.070;10.600;2022-10-15T05:17:19;17.60;;;4.78;;
33188;SDS011;52601;53.070;10.600;2022-10-15T05:20:06;11.48;;;4.70;;
33188;SDS011;52601;53.070;10.600;2022-10-15T05:22:52;12.38;;;5.97;;
33188;SDS011;52601;53.070;10.600;2022-10-15T05:25:37;11.48;;;6.53;;
33188;SDS011;52601;53.070;10.600;2022-10-15T05:28:22;10.88;;;6.47;;
33188;SDS011;52601;53.070;10.600;2022-10-15T05:31:09;12.18;;;5.97;;
33188;SDS011;52601;53.070;10.600;2022-10-15T05:34:06;7.75;;;4.38;;
33188;SDS011;52601;53.070;10.600;2022-10-15T05:36:52;9.80;;;5.10;;
33188;SDS011;52601;53.070;10.600;2022-10-15T05:39:38;11.02;;;5.10;;
33188;SDS011;52601;53.070;10.600;2022-10-15T05:42:23;10.35;;;4.93;;
33188;SDS011;52601;53.070;10.600;2022-10-15T05:45:09;11.20;;;5.45;;
33188;SDS011;52601;53.070;10.600;2022-10-15T05:47:55;10.63;;;6.32;;
33188;SDS011;52601;53.070;10.600;2022-10-15T05:50:41;11.83;;;6.10;;
33188;SDS011;52601;53.070;10.600;2022-10-15T05:53:27;10.15;;;5.57;;
33188;SDS011;52601;53.070;10.600;2022-10-15T05:56:13;12.37;;;6.67;;
33188;SDS011;52601;53.070;10.600;2022-10-15T05:58:59;11.25;;;5.90;;
33188;SDS011;52601;53.070;10.600;2022-10-15T06:01:45;9.77;;;5.22;;
33188;SDS011;52601;53.070;10.600;2022-10-15T06:04:30;13.25;;;5.90;;
33188;SDS011;52601;53.070;10.600;2022-10-15T06:07:20;9.88;;;5.45;;
33188;SDS011;52601;53.070;10.600;2022-10-15T06:10:06;12.32;;;6.13;;
33188;SDS011;52601;53.070;10.600;2022-10-15T06:12:51;12.30;;;5.68;;
33188;SDS011;52601;53.070;10.600;2022-10-15T06:15:37;13.25;;;6.75;;
33188;SDS011;52601;53.070;10.600;2022-10-15T06:18:27;10.32;;;5.50;;
33188;SDS011;52601;53.070;10.600;2022-10-15T06:21:12;11.52;;;5.85;;
33188;SDS011;52601;53.070;10.600;2022-10-15T06:23:58;9.45;;;5.28;;
33188;SDS011;52601;53.070;10.600;2022-10-15T06:26:43;10.63;;;5.82;;
33188;SDS011;52601;53.070;10.600;2022-10-15T06:29:29;9.63;;;5.20;;
33188;SDS011;52601;53.070;10.600;2022-10-15T06:32:14;11.93;;;6.15;;
33188;SDS011;52601;53.070;10.600;2022-10-15T06:34:59;10.38;;;5.32;;
33188;SDS011;52601;53.070;10.600;2022-10-15T06:37:45;11.13;;;5.60;;
33188;SDS011;52601;53.070;10.600;2022-10-15T06:40:31;10.85;;;5.85;;
33188;SDS011;52601;53.070;10.600;2022-10-15T06:43:16;8.40;;;5.35;;
33188;SDS011;52601;53.070;10.600;2022-10-15T06:46:02;9.40;;;4.15;;
33188;SDS011;52601;53.070;10.600;2022-10-15T06:48:49;9.52;;;4.95;;
33188;SDS011;52601;53.070;10.600;2022-10-15T06:51:35;7.13;;;4.13;;
33188;SDS011;52601;53.070;10.600;2022-10-15T06:54:21;10.13;;;5.05;;
33188;SDS011;52601;53.070;10.600;2022-10-15T06:57:07;8.73;;;4.82;;
33188;SDS011;52601;53.070;10.600;2022-10-15T06:59:52;10.33;;;6.13;;
33188;SDS011;52601;53.070;10.600;2022-10-15T07:02:37;9.07;;;4.80;;
33188;SDS011;52601;53.070;10.600;2022-10-15T07:05:23;9.05;;;4.60;;
33188;SDS011;52601;53.070;10.600;2022-10-15T07:08:08;9.00;;;4.97;;
33188;SDS011;52601;53.070;10.600;2022-10-15T07:10:53;7.47;;;4.70;;
33188;SDS011;52601;53.070;10.600;2022-10-15T07:13:39;7.88;;;4.53;;
33188;SDS011;52601;53.070;10.600;2022-10-15T07:16:26;8.32;;;4.93;;
33188;SDS011;52601;53.070;10.600;2022-10-15T07:19:11;9.02;;;5.00;;
33188;SDS011;52601;53.070;10.600;2022-10-15T07:21:56;7.70;;;4.60;;
33188;SDS011;52601;53.070;10.600;2022-10-15T07:24:42;8.82;;;4.65;;
33188;SDS011;52601;53.070;10.600;2022-10-15T07:27:28;11.60;;;4.87;;
33188;SDS011;52601;53.070;10.600;2022-10-15T07:30:13;7.72;;;4.80;;
33188;SDS011;52601;53.070;10.600;2022-10-15T07:32:59;7.47;;;4.93;;
33188;SDS011;52601;53.070;10.600;2022-10-15T07:35:44;9.05;;;4.68;;
33188;SDS011;52601;53.070;10.600;2022-10-15T07:38:29;7.95;;;4.32;;
33188;SDS011;52601;53.070;10.600;2022-10-15T07:41:15;8.93;;;4.93;;
33188;SDS011;52601;53.070;10.600;2022-10-15T07:44:00;10.07;;;4.40;;
33188;SDS011;52601;53.070;10.600;2022-10-15T07:46:45;8.33;;;4.77;;
33188;SDS011;52601;53.070;10.600;2022-10-15T07:49:31;6.55;;;4.18;;
33188;SDS011;52601;53.070;10.600;2022-10-15T07:52:17;7.07;;;4.38;;
33188;SDS011;52601;53.070;10.600;2022-10-15T07:55:02;8.70;;;4.88;;
33188;SDS011;52601;53.070;10.600;2022-10-15T07:57:48;9.20;;;5.35;;
33188;SDS011;52601;53.070;10.600;2022-10-15T08:00:34;9.48;;;4.30;;
33188;SDS011;52601;53.070;10.600;2022-10-15T08:03:19;9.88;;;5.55;;
33188;SDS011;52601;53.070;10.600;2022-10-15T08:06:06;9.35;;;5.38;;
33188;SDS011;52601;53.070;10.600;2022-10-15T08:08:52;11.57;;;5.40;;
33188;SDS011;52601;53.070;10.600;2022-10-15T08:11:38;7.15;;;4.65;;
33188;SDS011;52601;53.070;10.600;2022-10-15T08:14:23;7.78;;;4.28;;
33188;SDS011;52601;53.070;10.600;2022-10-15T08:17:09;8.80;;;5.10;;
33188;SDS011;52601;53.070;10.600;2022-10-15T08:19:55;8.70;;;4.78;;
33188;SDS011;52601;53.070;10.600;2022-10-15T08:22:40;19.15;;;4.97;;
33188;SDS011;52601;53.070;10.600;2022-10-15T08:25:26;10.10;;;5.15;;
33188;SDS011;52601;53.070;10.600;2022-10-15T08:28:11;7.95;;;4.45;;
33188;SDS011;52601;53.070;10.600;2022-10-15T08:30:57;8.75;;;4.68;;
33188;SDS011;52601;53.070;10.600;2022-10-15T08:33:49;7.18;;;4.22;;
33188;SDS011;52601;53.070;10.600;2022-10-15T08:36:35;10.93;;;4.80;;
33188;SDS011;52601;53.070;10.600;2022-10-15T08:39:20;9.23;;;4.70;;
33188;SDS011;52601;53.070;10.600;2022-10-15T08:42:06;8.52;;;4.75;;
33188;SDS011;52601;53.070;10.600;2022-10-15T08:45:05;8.98;;;4.75;;
33188;SDS011;52601;53.070;10.600;2022-10-15T08:47:57;7.18;;;5.05;;
33188;SDS011;52601;53.070;10.600;2022-10-15T08:51:02;7.05;;;3.80;;
33188;SDS011;52601;53.070;10.600;2022-10-15T08:53:50;7.13;;;3.77;;
33188;SDS011;52601;53.070;10.600;2022-10-15T08:56:40;8.90;;;4.50;;
33188;SDS011;52601;53.070;10.600;2022-10-15T08:59:34;6.68;;;3.95;;
33188;SDS011;52601;53.070;10.600;2022-10-15T09:02:28;6.07;;;4.13;;
33188;SDS011;52601;53.070;10.600;2022-10-15T09:05:21;8.00;;;3.97;;
33188;SDS011;52601;53.070;10.600;2022-10-15T09:08:22;7.63;;;3.80;;
33188;SDS011;52601;53.070;10.600;2022-10-15T09:11:20;6.47;;;3.83;;
33188;SDS011;52601;53.070;10.600;2022-10-15T09:14:21;5.28;;;3.38;;
33188;SDS011;52601;53.070;10.600;2022-10-15T09:20:12;7.97;;;3.38;;
33188;SDS011;52601;53.070;10.600;2022-10-15T09:23:02;8.30;;;3.25;;
33188;SDS011;52601;53.070;10.600;2022-10-15T09:26:31;5.65;;;2.70;;
33188;SDS011;52601;53.070;10.600;2022-10-15T09:29:16;3.75;;;2.40;;
33188;SDS011;52601;53.070;10.600;2022-10-15T09:35:19;5.53;;;2.80;;
33188;SDS011;52601;53.070;10.600;2022-10-15T09:38:24;6.22;;;3.22;;
33188;SDS011;52601;53.070;10.600;2022-10-15T09:44:10;4.57;;;2.83;;
33188;SDS011;52601;53.070;10.600;2022-10-15T09:46:58;4.93;;;2.67;;
33188;SDS011;52601;53.070;10.600;2022-10-15T09:49:44;4.03;;;2.75;;
33188;SDS011;52601;53.070;10.600;2022-10-15T09:58:49;5.50;;;2.75;;
33188;SDS011;52601;53.070;10.600;2022-10-15T10:01:36;3.55;;;2.45;;
33188;SDS011;52601;53.070;10.600;2022-10-15T10:04:23;3.92;;;2.55;;
33188;SDS011;52601;53.070;10.600;2022-10-15T10:10:28;5.67;;;3.07;;
33188;SDS011;52601;53.070;10.600;2022-10-15T10:13:22;6.60;;;3.47;;
33188;SDS011;52601;53.070;10.600;2022-10-15T10:16:17;5.57;;;3.50;;
33188;SDS011;52601;53.070;10.600;2022-10-15T10:19:08;6.72;;;3.63;;
33188;SDS011;52601;53.070;10.600;2022-10-15T10:22:16;5.85;;;4.00;;
33188;SDS011;52601;53.070;10.600;2022-10-15T10:25:09;8.25;;;3.88;;
33188;SDS011;52601;53.070;10.600;2022-10-15T10:30:58;5.03;;;2.88;;
33188;SDS011;52601;53.070;10.600;2022-10-15T10:33:48;4.45;;;2.92;;
33188;SDS011;52601;53.070;10.600;2022-10-15T10:36:34;3.28;;;2.50;;
33188;SDS011;52601;53.070;10.600;2022-10-15T10:39:27;3.35;;;2.28;;
33188;SDS011;52601;53.070;10.600;2022-10-15T10:45:17;4.63;;;2.70;;
33188;SDS011;52601;53.070;10.600;2022-10-15T10:48:19;3.60;;;2.20;;
33188;SDS011;52601;53.070;10.600;2022-10-15T10:51:08;4.65;;;1.90;;
33188;SDS011;52601;53.070;10.600;2022-10-15T10:54:00;3.17;;;1.83;;
33188;SDS011;52601;53.070;10.600;2022-10-15T10:56:47;4.70;;;2.17;;
33188;SDS011;52601;53.070;10.600;2022-10-15T10:59:34;6.10;;;2.13;;
33188;SDS011;52601;53.070;10.600;2022-10-15T11:02:26;2.67;;;1.80;;
33188;SDS011;52601;53.070;10.600;2022-10-15T11:05:12;6.25;;;2.05;;
33188;SDS011;52601;53.070;10.600;2022-10-15T11:08:13;2.88;;;1.90;;
33188;SDS011;52601;53.070;10.600;2022-10-15T11:11:10;2.15;;;1.70;;
33188;SDS011;52601;53.070;10.600;2022-10-15T11:14:07;2.90;;;2.00;;
33188;SDS011;52601;53.070;10.600;2022-10-15T11:27:13;1.75;;;1.30;;
33188;SDS011;52601;53.070;10.600;2022-10-15T11:30:29;2.60;;;1.77;;
33188;SDS011;52601;53.070;10.600;2022-10-15T11:42:54;3.22;;;2.45;;
33188;SDS011;52601;53.070;10.600;2022-10-15T11:48:33;4.30;;;2.30;;
33188;SDS011;52601;53.070;10.600;2022-10-15T11:52:04;3.30;;;2.40;;
33188;SDS011;52601;53.070;10.600;2022-10-15T11:55:12;5.53;;;2.90;;
33188;SDS011;52601;53.070;10.600;2022-10-15T11:58:05;4.30;;;2.50;;
33188;SDS011;52601;53.070;10.600;2022-10-15T12:00:59;3.30;;;2.35;;
33188;SDS011;52601;53.070;10.600;2022-10-15T12:03:55;4.00;;;2.72;;
33188;SDS011;52601;53.070;10.600;2022-10-15T12:06:46;4.70;;;2.90;;
33188;SDS011;52601;53.070;10.600;2022-10-15T12:09:37;4.90;;;3.35;;
33188;SDS011;52601;53.070;10.600;2022-10-15T12:12:27;5.63;;;3.72;;
33188;SDS011;52601;53.070;10.600;2022-10-15T12:15:28;5.45;;;3.40;;
33188;SDS011;52601;53.070;10.600;2022-10-15T12:27:22;5.05;;;3.17;;
33188;SDS011;52601;53.070;10.600;2022-10-15T12:30:10;5.15;;;3.35;;
33188;SDS011;52601;53.070;10.600;2022-10-15T12:32:57;5.63;;;3.03;;
33188;SDS011;52601;53.070;10.600;2022-10-15T12:35:47;4.80;;;2.88;;
33188;SDS011;52601;53.070;10.600;2022-10-15T12:38:39;7.37;;;3.10;;
33188;SDS011;52601;53.070;10.600;2022-10-15T12:41:45;3.95;;;2.70;;
33188;SDS011;52601;53.070;10.600;2022-10-15T12:44:33;5.38;;;3.03;;
33188;SDS011;52601;53.070;10.600;2022-10-15T12:47:44;5.28;;;3.00;;
33188;SDS011;52601;53.070;10.600;2022-10-15T12:50:45;4.57;;;3.22;;
33188;SDS011;52601;53.070;10.600;2022-10-15T12:53:31;3.67;;;2.78;;
33188;SDS011;52601;53.070;10.600;2022-10-15T12:56:20;5.88;;;2.92;;
33188;SDS011;52601;53.070;10.600;2022-10-15T12:59:27;5.97;;;2.85;;
33188;SDS011;52601;53.070;10.600;2022-10-15T13:05:33;3.05;;;2.33;;
33188;SDS011;52601;53.070;10.600;2022-10-15T13:08:21;3.20;;;2.38;;
33188;SDS011;52601;53.070;10.600;2022-10-15T13:11:11;3.10;;;2.30;;
33188;SDS011;52601;53.070;10.600;2022-10-15T13:16:57;3.00;;;2.20;;
33188;SDS011;52601;53.070;10.600;2022-10-15T13:19:46;5.85;;;2.35;;
33188;SDS011;52601;53.070;10.600;2022-10-15T13:22:37;11.13;;;3.65;;
33188;SDS011;52601;53.070;10.600;2022-10-15T13:25:22;2.90;;;2.28;;
33188;SDS011;52601;53.070;10.600;2022-10-15T13:37:22;2.67;;;1.90;;
33188;SDS011;52601;53.070;10.600;2022-10-15T13:40:21;4.03;;;2.35;;
33188;SDS011;52601;53.070;10.600;2022-10-15T13:43:15;2.78;;;1.92;;
33188;SDS011;52601;53.070;10.600;2022-10-15T13:46:02;4.38;;;2.20;;
33188;SDS011;52601;53.070;10.600;2022-10-15T13:48:47;6.03;;;1.97;;
33188;SDS011;52601;53.070;10.600;2022-10-15T13:51:34;3.80;;;2.17;;
33188;SDS011;52601;53.070;10.600;2022-10-15T13:54:27;1.87;;;1.43;;
33188;SDS011;52601;53.070;10.600;2022-10-15T13:57:16;2.88;;;1.88;;
33188;SDS011;52601;53.070;10.600;2022-10-15T14:00:02;2.25;;;1.58;;
33188;SDS011;52601;53.070;10.600;2022-10-15T14:03:05;2.60;;;1.95;;
33188;SDS011;52601;53.070;10.600;2022-10-15T14:05:52;3.88;;;1.58;;
33188;SDS011;52601;53.070;10.600;2022-10-15T14:08:38;15.80;;;2.30;;
33188;SDS011;52601;53.070;10.600;2022-10-15T14:11:24;3.27;;;1.90;;
33188;SDS011;52601;53.070;10.600;2022-10-15T14:20:03;2.95;;;1.60;;
33188;SDS011;52601;53.070;10.600;2022-10-15T14:23:19;1.90;;;1.20;;
33188;SDS011;52601;53.070;10.600;2022-10-15T14:26:07;8.55;;;2.17;;
33188;SDS011;52601;53.070;10.600;2022-10-15T14:28:55;2.20;;;1.40;;
33188;SDS011;52601;53.070;10.600;2022-10-15T14:31:44;3.22;;;1.20;;
33188;SDS011;52601;53.070;10.600;2022-10-15T14:34:35;1.75;;;1.20;;
33188;SDS011;52601;53.070;10.600;2022-10-15T14:37:31;2.67;;;1.38;;
33188;SDS011;52601;53.070;10.600;2022-10-15T14:40:21;1.38;;;1.10;;
33188;SDS011;52601;53.070;10.600;2022-10-15T14:43:16;1.40;;;1.23;;
33188;SDS011;52601;53.070;10.600;2022-10-15T14:46:03;1.20;;;1.10;;
33188;SDS011;52601;53.070;10.600;2022-10-15T14:48:51;0.88;;;0.85;;
33188;SDS011;52601;53.070;10.600;2022-10-15T14:51:36;1.85;;;1.20;;
33188;SDS011;52601;53.070;10.600;2022-10-15T14:54:24;1.73;;;1.00;;
33188;SDS011;52601;53.070;10.600;2022-10-15T14:57:16;1.50;;;1.00;;
33188;SDS011;52601;53.070;10.600;2022-10-15T15:00:24;1.35;;;1.20;;
33188;SDS011;52601;53.070;10.600;2022-10-15T15:03:16;1.52;;;0.98;;
33188;SDS011;52601;53.070;10.600;2022-10-15T15:06:03;2.20;;;0.90;;
33188;SDS011;52601;53.070;10.600;2022-10-15T15:08:49;1.90;;;0.77;;
33188;SDS011;52601;53.070;10.600;2022-10-15T15:11:35;1.10;;;1.00;;
33188;SDS011;52601;53.070;10.600;2022-10-15T15:14:23;1.00;;;0.80;;
33188;SDS011;52601;53.070;10.600;2022-10-15T15:17:12;1.20;;;0.98;;
33188;SDS011;52601;53.070;10.600;2022-10-15T15:20:00;1.35;;;1.13;;
33188;SDS011;52601;53.070;10.600;2022-10-15T15:22:49;1.30;;;0.90;;
33188;SDS011;52601;53.070;10.600;2022-10-15T15:25:36;0.80;;;0.77;;
33188;SDS011;52601;53.070;10.600;2022-10-15T15:28:25;0.80;;;0.80;;
33188;SDS011;52601;53.070;10.600;2022-10-15T15:31:12;1.70;;;0.90;;
33188;SDS011;52601;53.070;10.600;2022-10-15T15:34:01;1.05;;;0.90;;
33188;SDS011;52601;53.070;10.600;2022-10-15T15:36:46;0.90;;;0.80;;
33188;SDS011;52601;53.070;10.600;2022-10-15T15:39:32;2.35;;;0.80;;
33188;SDS011;52601;53.070;10.600;2022-10-15T15:42:21;2.08;;;0.93;;
33188;SDS011;52601;53.070;10.600;2022-10-15T15:45:13;0.93;;;0.80;;
33188;SDS011;52601;53.070;10.600;2022-10-15T15:48:03;0.88;;;0.73;;
33188;SDS011;52601;53.070;10.600;2022-10-15T15:50:49;2.07;;;1.30;;
33188;SDS011;52601;53.070;10.600;2022-10-15T15:53:34;1.00;;;0.80;;
33188;SDS011;52601;53.070;10.600;2022-10-15T15:56:20;0.80;;;0.80;;
33188;SDS011;52601;53.070;10.600;2022-10-15T15:59:05;1.80;;;0.80;;
33188;SDS011;52601;53.070;10.600;2022-10-15T16:01:51;1.27;;;0.70;;
33188;SDS011;52601;53.070;10.600;2022-10-15T16:04:36;2.30;;;0.68;;
33188;SDS011;52601;53.070;10.600;2022-10-15T16:07:22;1.30;;;0.90;;
33188;SDS011;52601;53.070;10.600;2022-10-15T16:10:12;0.95;;;0.70;;
33188;SDS011;52601;53.070;10.600;2022-10-15T16:12:57;1.03;;;0.93;;
33188;SDS011;52601;53.070;10.600;2022-10-15T16:15:43;1.60;;;0.77;;
33188;SDS011;52601;53.070;10.600;2022-10-15T16:18:28;1.50;;;0.50;;
33188;SDS011;52601;53.070;10.600;2022-10-15T16:21:19;1.45;;;0.85;;
33188;SDS011;52601;53.070;10.600;2022-10-15T16:24:07;1.17;;;0.80;;
33188;SDS011;52601;53.070;10.600;2022-10-15T16:26:53;2.78;;;0.90;;
33188;SDS011;52601;53.070;10.600;2022-10-15T16:29:38;1.17;;;0.90;;
33188;SDS011;52601;53.070;10.600;2022-10-15T16:32:24;0.80;;;0.75;;
33188;SDS011;52601;53.070;10.600;2022-10-15T16:35:10;1.10;;;0.80;;
33188;SDS011;52601;53.070;10.600;2022-10-15T16:37:55;2.28;;;1.10;;
33188;SDS011;52601;53.070;10.600;2022-10-15T16:40:40;0.98;;;0.80;;
33188;SDS011;52601;53.070;10.600;2022-10-15T16:43:30;1.35;;;1.08;;
33188;SDS011;52601;53.070;10.600;2022-10-15T16:46:16;2.08;;;0.95;;
33188;SDS011;52601;53.070;10.600;2022-10-15T16:49:02;1.02;;;0.73;;
33188;SDS011;52601;53.070;10.600;2022-10-15T16:51:48;1.33;;;0.85;;
33188;SDS011;52601;53.070;10.600;2022-10-15T16:54:33;2.63;;;1.52;;
33188;SDS011;52601;53.070;10.600;2022-10-15T16:57:19;1.20;;;1.00;;
33188;SDS011;52601;53.070;10.600;2022-10-15T17:00:05;0.80;;;0.60;;
33188;SDS011;52601;53.070;10.600;2022-10-15T17:02:51;2.08;;;0.73;;
33188;SDS011;52601;53.070;10.600;2022-10-15T17:05:36;2.17;;;0.85;;
33188;SDS011;52601;53.070;10.600;2022-10-15T17:08:21;0.98;;;0.70;;
33188;SDS011;52601;53.070;10.600;2022-10-15T17:11:12;2.70;;;1.08;;
33188;SDS011;52601;53.070;10.600;2022-10-15T17:14:17;1.50;;;0.85;;
33188;SDS011;52601;53.070;10.600;2022-10-15T17:17:03;1.00;;;0.85;;
33188;SDS011;52601;53.070;10.600;2022-10-15T17:19:48;1.70;;;0.93;;
33188;SDS011;52601;53.070;10.600;2022-10-15T17:22:34;2.08;;;0.90;;
33188;SDS011;52601;53.070;10.600;2022-10-15T17:25:20;2.17;;;1.00;;
33188;SDS011;52601;53.070;10.600;2022-10-15T17:28:05;1.95;;;1.63;;
33188;SDS011;52601;53.070;10.600;2022-10-15T17:31:00;2.92;;;1.00;;
33188;SDS011;52601;53.070;10.600;2022-10-15T17:33:57;0.93;;;0.80;;
33188;SDS011;52601;53.070;10.600;2022-10-15T17:36:46;2.28;;;1.10;;
33188;SDS011;52601;53.070;10.600;2022-10-15T17:39:33;1.10;;;0.70;;
33188;SDS011;52601;53.070;10.600;2022-10-15T17:42:19;0.70;;;0.70;;
33188;SDS011;52601;53.070;10.600;2022-10-15T17:45:05;2.30;;;1.00;;
33188;SDS011;52601;53.070;10.600;2022-10-15T17:47:51;6.72;;;3.00;;
33188;SDS011;52601;53.070;10.600;2022-10-15T17:50:37;22.20;;;9.88;;
33188;SDS011;52601;53.070;10.600;2022-10-15T17:53:29;5.85;;;3.08;;
33188;SDS011;52601;53.070;10.600;2022-10-15T17:56:19;8.82;;;4.68;;
33188;SDS011;52601;53.070;10.600;2022-10-15T17:59:07;2.77;;;2.03;;
33188;SDS011;52601;53.070;10.600;2022-10-15T18:01:55;2.20;;;0.70;;
33188;SDS011;52601;53.070;10.600;2022-10-15T18:04:44;4.50;;;0.80;;
33188;SDS011;52601;53.070;10.600;2022-10-15T18:07:31;1.30;;;0.50;;
33188;SDS011;52601;53.070;10.600;2022-10-15T18:10:16;1.20;;;0.80;;
33188;SDS011;52601;53.070;10.600;2022-10-15T18:13:02;0.90;;;0.70;;
33188;SDS011;52601;53.070;10.600;2022-10-15T18:15:49;0.80;;;0.70;;
33188;SDS011;52601;53.070;10.600;2022-10-15T18:18:35;0.57;;;0.50;;